Delta Virtual Airport Information Service

Johannesburg OR Tambo International Airport

ICAO: FAOR Country: South Africa
Latitude: -26.1391 Longitude: 28.246
Latest Arrival : DAL5633731 (OMDB-FAOR) Latest Departure : DAL5633732 (FAOR-SBGR)


WX CaptureLIVE
Data provided by noaa.gov | Fetched at 07:59:31

METAR : FAOR 301330Z 32013KT 270V350 9999 FEW040 24/13 Q1019 NOSIG

TAF : FAOR 301220Z 3012/0118 32013KT 9999 SCT030 TX26/0113Z TN14/0103Z TEMPO 3012/3014 32015G25KT PROB40 TEMPO 3014/3017 -TSRA FEW035CB TEMPO 3017/3021 20018G28KT 4000 TSRA SCT030CB BECMG 3019/3020 VRB03KT PROB40 TEMPO 3021/0102 5000 SHRA FEW035TCU FM010600 35015KT 9999 SCT030 PROB40 TEMPO 0113/0118 19018G28KT 5000 TSRA FEW035CB


Runway Data for FAOR
Data provided by openaviationdata.com

Runway ID Mag Var Hdg Length Elevation Surface ILS Freq ILS Id ILS Slope

Johannesburg OR Tambo International Airport, South Africa
Use only for reference purposes



Not for navigational purposes.